sensor_id;sensor_type;location;lat;lon;timestamp;P1;durP1;ratioP1;P2;durP2;ratioP2
54517;SDS011;40423;53.176;6.002;2022-10-18T00:01:08;26.52;;;15.88;;
54517;SDS011;40423;53.176;6.002;2022-10-18T00:03:34;29.50;;;15.68;;
54517;SDS011;40423;53.176;6.002;2022-10-18T00:06:01;37.30;;;18.70;;
54517;SDS011;40423;53.176;6.002;2022-10-18T00:08:27;35.92;;;18.40;;
54517;SDS011;40423;53.176;6.002;2022-10-18T00:10:53;42.80;;;21.08;;
54517;SDS011;40423;53.176;6.002;2022-10-18T00:13:19;27.42;;;16.20;;
54517;SDS011;40423;53.176;6.002;2022-10-18T00:15:52;30.70;;;17.15;;
54517;SDS011;40423;53.176;6.002;2022-10-18T00:18:19;26.88;;;16.58;;
54517;SDS011;40423;53.176;6.002;2022-10-18T00:20:54;54.42;;;25.25;;
54517;SDS011;40423;53.176;6.002;2022-10-18T00:23:24;42.88;;;21.33;;
54517;SDS011;40423;53.176;6.002;2022-10-18T00:25:58;39.88;;;19.65;;
54517;SDS011;40423;53.176;6.002;2022-10-18T00:28:25;36.75;;;21.50;;
54517;SDS011;40423;53.176;6.002;2022-10-18T00:30:50;57.80;;;24.98;;
54517;SDS011;40423;53.176;6.002;2022-10-18T00:33:16;35.20;;;20.83;;
54517;SDS011;40423;53.176;6.002;2022-10-18T00:35:42;102.55;;;24.70;;
54517;SDS011;40423;53.176;6.002;2022-10-18T00:38:07;72.95;;;25.52;;
54517;SDS011;40423;53.176;6.002;2022-10-18T00:40:33;49.17;;;21.58;;
54517;SDS011;40423;53.176;6.002;2022-10-18T00:42:58;51.17;;;21.83;;
54517;SDS011;40423;53.176;6.002;2022-10-18T00:45:24;96.15;;;26.55;;
54517;SDS011;40423;53.176;6.002;2022-10-18T00:47:52;40.78;;;20.05;;
54517;SDS011;40423;53.176;6.002;2022-10-18T00:50:22;30.88;;;17.23;;
54517;SDS011;40423;53.176;6.002;2022-10-18T00:52:51;53.22;;;20.33;;
54517;SDS011;40423;53.176;6.002;2022-10-18T00:55:22;57.45;;;22.08;;
54517;SDS011;40423;53.176;6.002;2022-10-18T00:57:49;265.63;;;36.45;;
54517;SDS011;40423;53.176;6.002;2022-10-18T01:00:15;65.20;;;21.13;;
54517;SDS011;40423;53.176;6.002;2022-10-18T01:02:42;96.75;;;21.75;;
54517;SDS011;40423;53.176;6.002;2022-10-18T01:05:12;75.70;;;23.10;;
54517;SDS011;40423;53.176;6.002;2022-10-18T01:10:48;66.57;;;18.38;;
54517;SDS011;40423;53.176;6.002;2022-10-18T01:16:17;68.40;;;19.00;;
54517;SDS011;40423;53.176;6.002;2022-10-18T01:20:00;63.80;;;20.33;;
54517;SDS011;40423;53.176;6.002;2022-10-18T01:22:10;152.10;;;25.95;;
54517;SDS011;40423;53.176;6.002;2022-10-18T01:25:00;100.38;;;20.65;;
54517;SDS011;40423;53.176;6.002;2022-10-18T01:27:50;89.70;;;20.33;;
54517;SDS011;40423;53.176;6.002;2022-10-18T01:33:16;32.72;;;15.95;;
54517;SDS011;40423;53.176;6.002;2022-10-18T01:35:51;87.68;;;19.05;;
54517;SDS011;40423;53.176;6.002;2022-10-18T01:38:22;89.82;;;18.42;;
54517;SDS011;40423;53.176;6.002;2022-10-18T01:40:49;74.47;;;21.80;;
54517;SDS011;40423;53.176;6.002;2022-10-18T01:43:16;73.22;;;18.38;;
54517;SDS011;40423;53.176;6.002;2022-10-18T01:45:45;41.35;;;16.55;;
54517;SDS011;40423;53.176;6.002;2022-10-18T01:48:12;35.03;;;16.17;;
54517;SDS011;40423;53.176;6.002;2022-10-18T01:50:38;31.95;;;14.23;;
54517;SDS011;40423;53.176;6.002;2022-10-18T01:53:04;89.35;;;21.77;;
54517;SDS011;40423;53.176;6.002;2022-10-18T02:00:42;22.42;;;13.25;;
54517;SDS011;40423;53.176;6.002;2022-10-18T02:03:21;45.80;;;19.05;;
54517;SDS011;40423;53.176;6.002;2022-10-18T02:05:58;41.58;;;16.85;;
54517;SDS011;40423;53.176;6.002;2022-10-18T02:08:34;20.90;;;15.10;;
54517;SDS011;40423;53.176;6.002;2022-10-18T02:11:13;49.60;;;19.73;;
54517;SDS011;40423;53.176;6.002;2022-10-18T02:13:51;33.03;;;17.67;;
54517;SDS011;40423;53.176;6.002;2022-10-18T02:16:22;34.42;;;14.75;;
54517;SDS011;40423;53.176;6.002;2022-10-18T02:19:00;72.47;;;20.17;;
54517;SDS011;40423;53.176;6.002;2022-10-18T02:21:34;27.42;;;15.15;;
54517;SDS011;40423;53.176;6.002;2022-10-18T02:24:05;40.05;;;17.38;;
54517;SDS011;40423;53.176;6.002;2022-10-18T02:26:32;34.80;;;16.38;;
54517;SDS011;40423;53.176;6.002;2022-10-18T02:28:58;30.23;;;14.85;;
54517;SDS011;40423;53.176;6.002;2022-10-18T02:31:25;69.50;;;18.85;;
54517;SDS011;40423;53.176;6.002;2022-10-18T02:36:54;40.78;;;15.93;;
54517;SDS011;40423;53.176;6.002;2022-10-18T02:39:30;25.50;;;15.38;;
54517;SDS011;40423;53.176;6.002;2022-10-18T02:42:02;80.97;;;17.42;;
54517;SDS011;40423;53.176;6.002;2022-10-18T02:44:32;104.45;;;17.85;;
54517;SDS011;40423;53.176;6.002;2022-10-18T02:46:58;36.42;;;15.75;;
54517;SDS011;40423;53.176;6.002;2022-10-18T02:49:24;40.00;;;12.27;;
54517;SDS011;40423;53.176;6.002;2022-10-18T02:51:50;83.05;;;16.77;;
54517;SDS011;40423;53.176;6.002;2022-10-18T02:54:16;391.60;;;39.90;;
54517;SDS011;40423;53.176;6.002;2022-10-18T02:56:41;111.55;;;19.05;;
54517;SDS011;40423;53.176;6.002;2022-10-18T02:59:07;78.45;;;17.60;;
54517;SDS011;40423;53.176;6.002;2022-10-18T03:01:33;61.03;;;16.77;;
54517;SDS011;40423;53.176;6.002;2022-10-18T03:04:00;53.10;;;16.02;;
54517;SDS011;40423;53.176;6.002;2022-10-18T03:06:26;61.55;;;16.05;;
54517;SDS011;40423;53.176;6.002;2022-10-18T03:08:52;63.92;;;15.48;;
54517;SDS011;40423;53.176;6.002;2022-10-18T03:11:18;65.78;;;16.65;;
54517;SDS011;40423;53.176;6.002;2022-10-18T03:13:44;225.68;;;26.25;;
54517;SDS011;40423;53.176;6.002;2022-10-18T03:16:10;104.68;;;17.88;;
54517;SDS011;40423;53.176;6.002;2022-10-18T03:18:36;78.93;;;13.93;;
54517;SDS011;40423;53.176;6.002;2022-10-18T03:21:02;76.47;;;13.10;;
54517;SDS011;40423;53.176;6.002;2022-10-18T03:23:29;94.32;;;14.98;;
54517;SDS011;40423;53.176;6.002;2022-10-18T03:25:55;127.07;;;15.38;;
54517;SDS011;40423;53.176;6.002;2022-10-18T03:28:20;54.38;;;11.75;;
54517;SDS011;40423;53.176;6.002;2022-10-18T03:30:46;90.22;;;13.98;;
54517;SDS011;40423;53.176;6.002;2022-10-18T03:33:12;80.35;;;14.73;;
54517;SDS011;40423;53.176;6.002;2022-10-18T03:35:38;63.13;;;14.02;;
54517;SDS011;40423;53.176;6.002;2022-10-18T03:38:03;75.68;;;13.52;;
54517;SDS011;40423;53.176;6.002;2022-10-18T03:40:29;30.90;;;10.75;;
54517;SDS011;40423;53.176;6.002;2022-10-18T03:42:55;61.55;;;14.10;;
54517;SDS011;40423;53.176;6.002;2022-10-18T03:45:20;52.20;;;12.90;;
54517;SDS011;40423;53.176;6.002;2022-10-18T03:47:46;37.92;;;12.55;;
54517;SDS011;40423;53.176;6.002;2022-10-18T03:50:12;51.30;;;12.55;;
54517;SDS011;40423;53.176;6.002;2022-10-18T03:52:37;55.42;;;12.70;;
54517;SDS011;40423;53.176;6.002;2022-10-18T03:55:03;28.27;;;9.88;;
54517;SDS011;40423;53.176;6.002;2022-10-18T03:57:29;77.45;;;13.48;;
54517;SDS011;40423;53.176;6.002;2022-10-18T03:59:55;52.42;;;13.05;;
54517;SDS011;40423;53.176;6.002;2022-10-18T04:02:21;57.75;;;12.18;;
54517;SDS011;40423;53.176;6.002;2022-10-18T04:04:46;25.60;;;10.27;;
54517;SDS011;40423;53.176;6.002;2022-10-18T04:07:12;58.22;;;11.77;;
54517;SDS011;40423;53.176;6.002;2022-10-18T04:09:38;41.05;;;10.73;;
54517;SDS011;40423;53.176;6.002;2022-10-18T04:12:03;47.63;;;9.75;;
54517;SDS011;40423;53.176;6.002;2022-10-18T04:14:29;12.90;;;7.70;;
54517;SDS011;40423;53.176;6.002;2022-10-18T04:16:55;31.90;;;8.93;;
54517;SDS011;40423;53.176;6.002;2022-10-18T04:19:21;26.52;;;9.60;;
54517;SDS011;40423;53.176;6.002;2022-10-18T04:21:46;60.75;;;11.88;;
54517;SDS011;40423;53.176;6.002;2022-10-18T04:24:12;36.72;;;9.02;;
54517;SDS011;40423;53.176;6.002;2022-10-18T04:26:40;43.92;;;10.27;;
54517;SDS011;40423;53.176;6.002;2022-10-18T04:29:05;44.17;;;9.55;;
54517;SDS011;40423;53.176;6.002;2022-10-18T04:31:31;60.88;;;11.68;;
54517;SDS011;40423;53.176;6.002;2022-10-18T04:33:57;28.38;;;8.68;;
54517;SDS011;40423;53.176;6.002;2022-10-18T04:36:23;17.10;;;7.90;;
54517;SDS011;40423;53.176;6.002;2022-10-18T04:38:48;26.95;;;8.27;;
54517;SDS011;40423;53.176;6.002;2022-10-18T04:41:14;14.48;;;9.63;;
54517;SDS011;40423;53.176;6.002;2022-10-18T04:43:40;10.10;;;7.18;;
54517;SDS011;40423;53.176;6.002;2022-10-18T04:46:05;9.15;;;7.20;;
54517;SDS011;40423;53.176;6.002;2022-10-18T04:48:31;9.73;;;8.35;;
54517;SDS011;40423;53.176;6.002;2022-10-18T04:50:57;45.42;;;13.13;;
54517;SDS011;40423;53.176;6.002;2022-10-18T04:53:22;32.28;;;12.10;;
54517;SDS011;40423;53.176;6.002;2022-10-18T04:55:48;20.55;;;10.43;;
54517;SDS011;40423;53.176;6.002;2022-10-18T04:58:15;12.70;;;9.20;;
54517;SDS011;40423;53.176;6.002;2022-10-18T05:00:41;11.82;;;9.73;;
54517;SDS011;40423;53.176;6.002;2022-10-18T05:03:07;14.23;;;9.18;;
54517;SDS011;40423;53.176;6.002;2022-10-18T05:05:34;10.98;;;8.18;;
54517;SDS011;40423;53.176;6.002;2022-10-18T05:08:00;18.85;;;9.55;;
54517;SDS011;40423;53.176;6.002;2022-10-18T05:10:26;30.88;;;10.18;;
54517;SDS011;40423;53.176;6.002;2022-10-18T05:12:51;24.77;;;9.20;;
54517;SDS011;40423;53.176;6.002;2022-10-18T05:15:17;81.68;;;11.05;;
54517;SDS011;40423;53.176;6.002;2022-10-18T05:17:43;32.85;;;9.07;;
54517;SDS011;40423;53.176;6.002;2022-10-18T05:20:09;20.80;;;7.70;;
54517;SDS011;40423;53.176;6.002;2022-10-18T05:22:34;12.18;;;6.22;;
54517;SDS011;40423;53.176;6.002;2022-10-18T05:25:00;23.75;;;7.40;;
54517;SDS011;40423;53.176;6.002;2022-10-18T05:27:26;24.42;;;7.50;;
54517;SDS011;40423;53.176;6.002;2022-10-18T05:29:52;15.93;;;7.25;;
54517;SDS011;40423;53.176;6.002;2022-10-18T05:32:18;76.88;;;9.70;;
54517;SDS011;40423;53.176;6.002;2022-10-18T05:34:44;74.30;;;9.40;;
54517;SDS011;40423;53.176;6.002;2022-10-18T05:37:10;100.22;;;11.40;;
54517;SDS011;40423;53.176;6.002;2022-10-18T05:39:36;85.50;;;11.48;;
54517;SDS011;40423;53.176;6.002;2022-10-18T05:42:02;40.28;;;7.82;;
54517;SDS011;40423;53.176;6.002;2022-10-18T05:44:28;21.85;;;6.43;;
54517;SDS011;40423;53.176;6.002;2022-10-18T05:46:54;30.23;;;6.43;;
54517;SDS011;40423;53.176;6.002;2022-10-18T05:49:20;16.77;;;5.20;;
54517;SDS011;40423;53.176;6.002;2022-10-18T05:51:45;17.88;;;5.35;;
54517;SDS011;40423;53.176;6.002;2022-10-18T05:54:11;14.18;;;5.10;;
54517;SDS011;40423;53.176;6.002;2022-10-18T05:56:38;15.25;;;4.57;;
54517;SDS011;40423;53.176;6.002;2022-10-18T05:59:04;49.80;;;7.38;;
54517;SDS011;40423;53.176;6.002;2022-10-18T06:01:34;12.90;;;4.13;;
54517;SDS011;40423;53.176;6.002;2022-10-18T06:04:00;8.88;;;3.60;;
54517;SDS011;40423;53.176;6.002;2022-10-18T06:06:26;27.85;;;5.40;;
54517;SDS011;40423;53.176;6.002;2022-10-18T06:08:52;4.88;;;4.10;;
54517;SDS011;40423;53.176;6.002;2022-10-18T06:11:18;26.50;;;6.10;;
54517;SDS011;40423;53.176;6.002;2022-10-18T06:13:45;10.20;;;3.83;;
54517;SDS011;40423;53.176;6.002;2022-10-18T06:16:13;25.35;;;6.28;;
54517;SDS011;40423;53.176;6.002;2022-10-18T06:18:40;57.00;;;7.43;;
54517;SDS011;40423;53.176;6.002;2022-10-18T06:21:07;61.05;;;7.00;;
54517;SDS011;40423;53.176;6.002;2022-10-18T06:23:33;21.00;;;5.32;;
54517;SDS011;40423;53.176;6.002;2022-10-18T06:26:00;27.92;;;4.03;;
54517;SDS011;40423;53.176;6.002;2022-10-18T06:28:28;22.60;;;4.35;;
54517;SDS011;40423;53.176;6.002;2022-10-18T06:30:54;20.75;;;5.35;;
54517;SDS011;40423;53.176;6.002;2022-10-18T06:33:20;17.48;;;5.63;;
54517;SDS011;40423;53.176;6.002;2022-10-18T06:36:03;19.17;;;5.88;;
54517;SDS011;40423;53.176;6.002;2022-10-18T06:38:34;9.02;;;4.47;;
54517;SDS011;40423;53.176;6.002;2022-10-18T06:41:00;13.32;;;5.65;;
54517;SDS011;40423;53.176;6.002;2022-10-18T06:43:26;8.15;;;5.03;;
54517;SDS011;40423;53.176;6.002;2022-10-18T06:45:53;14.00;;;5.80;;
54517;SDS011;40423;53.176;6.002;2022-10-18T06:48:19;19.40;;;4.80;;
54517;SDS011;40423;53.176;6.002;2022-10-18T06:50:49;17.65;;;5.32;;
54517;SDS011;40423;53.176;6.002;2022-10-18T06:53:21;49.10;;;7.85;;
54517;SDS011;40423;53.176;6.002;2022-10-18T06:55:47;36.30;;;7.47;;
54517;SDS011;40423;53.176;6.002;2022-10-18T06:58:13;18.40;;;6.50;;
54517;SDS011;40423;53.176;6.002;2022-10-18T07:00:39;32.80;;;8.52;;
54517;SDS011;40423;53.176;6.002;2022-10-18T07:03:05;20.10;;;8.27;;
54517;SDS011;40423;53.176;6.002;2022-10-18T07:05:31;16.05;;;8.38;;
54517;SDS011;40423;53.176;6.002;2022-10-18T07:07:57;11.85;;;7.32;;
54517;SDS011;40423;53.176;6.002;2022-10-18T07:10:23;20.13;;;8.52;;
54517;SDS011;40423;53.176;6.002;2022-10-18T07:12:49;12.65;;;7.53;;
54517;SDS011;40423;53.176;6.002;2022-10-18T07:15:15;15.52;;;6.25;;
54517;SDS011;40423;53.176;6.002;2022-10-18T07:17:42;30.52;;;7.80;;
54517;SDS011;40423;53.176;6.002;2022-10-18T07:20:10;8.48;;;5.85;;
54517;SDS011;40423;53.176;6.002;2022-10-18T07:22:36;11.25;;;5.30;;
54517;SDS011;40423;53.176;6.002;2022-10-18T07:25:03;5.68;;;4.35;;
54517;SDS011;40423;53.176;6.002;2022-10-18T07:27:29;7.82;;;5.38;;
54517;SDS011;40423;53.176;6.002;2022-10-18T07:29:55;8.88;;;4.78;;
54517;SDS011;40423;53.176;6.002;2022-10-18T07:32:21;7.60;;;4.88;;
54517;SDS011;40423;53.176;6.002;2022-10-18T07:34:46;6.45;;;4.35;;
54517;SDS011;40423;53.176;6.002;2022-10-18T07:37:12;6.95;;;4.93;;
54517;SDS011;40423;53.176;6.002;2022-10-18T07:39:38;8.27;;;4.78;;
54517;SDS011;40423;53.176;6.002;2022-10-18T07:42:04;10.23;;;5.43;;
54517;SDS011;40423;53.176;6.002;2022-10-18T07:44:29;7.95;;;5.28;;
54517;SDS011;40423;53.176;6.002;2022-10-18T07:46:55;12.13;;;5.47;;
54517;SDS011;40423;53.176;6.002;2022-10-18T07:49:21;8.30;;;4.85;;
54517;SDS011;40423;53.176;6.002;2022-10-18T07:51:46;10.50;;;4.50;;
54517;SDS011;40423;53.176;6.002;2022-10-18T07:54:12;9.98;;;4.57;;
54517;SDS011;40423;53.176;6.002;2022-10-18T07:56:38;8.65;;;4.50;;
54517;SDS011;40423;53.176;6.002;2022-10-18T07:59:03;6.70;;;4.13;;
54517;SDS011;40423;53.176;6.002;2022-10-18T08:01:29;8.20;;;4.57;;
54517;SDS011;40423;53.176;6.002;2022-10-18T08:03:55;10.15;;;4.68;;
54517;SDS011;40423;53.176;6.002;2022-10-18T08:06:21;12.13;;;4.97;;
54517;SDS011;40423;53.176;6.002;2022-10-18T08:08:47;10.63;;;4.20;;
54517;SDS011;40423;53.176;6.002;2022-10-18T08:11:14;9.88;;;4.60;;
54517;SDS011;40423;53.176;6.002;2022-10-18T08:13:42;11.02;;;4.63;;
54517;SDS011;40423;53.176;6.002;2022-10-18T08:16:12;15.15;;;4.82;;
54517;SDS011;40423;53.176;6.002;2022-10-18T08:18:51;9.10;;;3.90;;
54517;SDS011;40423;53.176;6.002;2022-10-18T08:21:18;9.25;;;4.35;;
54517;SDS011;40423;53.176;6.002;2022-10-18T08:23:45;8.45;;;3.75;;
54517;SDS011;40423;53.176;6.002;2022-10-18T08:26:18;8.05;;;4.57;;
54517;SDS011;40423;53.176;6.002;2022-10-18T08:28:45;8.00;;;3.35;;
54517;SDS011;40423;53.176;6.002;2022-10-18T08:31:11;11.57;;;3.83;;
54517;SDS011;40423;53.176;6.002;2022-10-18T08:33:39;13.45;;;3.22;;
54517;SDS011;40423;53.176;6.002;2022-10-18T08:36:05;15.02;;;3.13;;
54517;SDS011;40423;53.176;6.002;2022-10-18T08:38:33;14.02;;;3.10;;
54517;SDS011;40423;53.176;6.002;2022-10-18T08:46:32;12.00;;;3.33;;
54517;SDS011;40423;53.176;6.002;2022-10-18T08:49:00;17.00;;;3.13;;
54517;SDS011;40423;53.176;6.002;2022-10-18T08:54:02;13.32;;;3.28;;
54517;SDS011;40423;53.176;6.002;2022-10-18T08:56:38;12.70;;;3.42;;
54517;SDS011;40423;53.176;6.002;2022-10-18T08:59:09;9.52;;;2.90;;
54517;SDS011;40423;53.176;6.002;2022-10-18T09:07:23;14.93;;;2.60;;
54517;SDS011;40423;53.176;6.002;2022-10-18T09:12:42;14.77;;;2.90;;
54517;SDS011;40423;53.176;6.002;2022-10-18T09:18:11;16.20;;;2.78;;
54517;SDS011;40423;53.176;6.002;2022-10-18T09:23:18;46.67;;;4.22;;
54517;SDS011;40423;53.176;6.002;2022-10-18T09:26:35;18.80;;;3.15;;
54517;SDS011;40423;53.176;6.002;2022-10-18T09:37:14;14.45;;;2.63;;
54517;SDS011;40423;53.176;6.002;2022-10-18T09:39:42;16.20;;;2.90;;
54517;SDS011;40423;53.176;6.002;2022-10-18T09:42:28;17.75;;;2.50;;
54517;SDS011;40423;53.176;6.002;2022-10-18T09:45:05;11.23;;;2.58;;
54517;SDS011;40423;53.176;6.002;2022-10-18T09:47:57;15.63;;;3.15;;
54517;SDS011;40423;53.176;6.002;2022-10-18T09:50:37;9.90;;;2.38;;
54517;SDS011;40423;53.176;6.002;2022-10-18T09:53:12;13.52;;;3.00;;
54517;SDS011;40423;53.176;6.002;2022-10-18T09:56:01;13.15;;;2.50;;
54517;SDS011;40423;53.176;6.002;2022-10-18T09:58:35;10.93;;;2.55;;
54517;SDS011;40423;53.176;6.002;2022-10-18T10:01:07;13.43;;;2.20;;
54517;SDS011;40423;53.176;6.002;2022-10-18T10:03:33;16.25;;;2.80;;
54517;SDS011;40423;53.176;6.002;2022-10-18T10:08:46;13.55;;;3.95;;
54517;SDS011;40423;53.176;6.002;2022-10-18T10:14:11;12.50;;;1.75;;
54517;SDS011;40423;53.176;6.002;2022-10-18T10:21:52;9.80;;;2.22;;
54517;SDS011;40423;53.176;6.002;2022-10-18T10:24:25;9.52;;;1.95;;
54517;SDS011;40423;53.176;6.002;2022-10-18T10:27:54;14.00;;;2.67;;
54517;SDS011;40423;53.176;6.002;2022-10-18T10:30:21;14.35;;;2.08;;
54517;SDS011;40423;53.176;6.002;2022-10-18T10:32:58;14.73;;;2.20;;
54517;SDS011;40423;53.176;6.002;2022-10-18T10:35:31;9.77;;;2.00;;
54517;SDS011;40423;53.176;6.002;2022-10-18T10:38:03;13.48;;;2.63;;
54517;SDS011;40423;53.176;6.002;2022-10-18T10:40:30;14.35;;;2.30;;
54517;SDS011;40423;53.176;6.002;2022-10-18T10:43:17;11.52;;;2.67;;
54517;SDS011;40423;53.176;6.002;2022-10-18T10:48:45;10.13;;;2.00;;
54517;SDS011;40423;53.176;6.002;2022-10-18T10:59:06;9.65;;;2.05;;
54517;SDS011;40423;53.176;6.002;2022-10-18T11:01:41;7.45;;;1.77;;
54517;SDS011;40423;53.176;6.002;2022-10-18T11:04:24;12.02;;;2.17;;
54517;SDS011;40423;53.176;6.002;2022-10-18T11:12:45;11.18;;;2.75;;
54517;SDS011;40423;53.176;6.002;2022-10-18T11:15:21;16.25;;;2.38;;
54517;SDS011;40423;53.176;6.002;2022-10-18T11:23:41;11.82;;;2.03;;
54517;SDS011;40423;53.176;6.002;2022-10-18T11:42:55;12.88;;;2.28;;
54517;SDS011;40423;53.176;6.002;2022-10-18T11:51:14;15.18;;;2.05;;
54517;SDS011;40423;53.176;6.002;2022-10-18T11:59:09;10.20;;;2.08;;
54517;SDS011;40423;53.176;6.002;2022-10-18T12:01:59;12.07;;;2.58;;
54517;SDS011;40423;53.176;6.002;2022-10-18T12:04:56;10.05;;;1.77;;
54517;SDS011;40423;53.176;6.002;2022-10-18T12:07:25;12.02;;;2.47;;
54517;SDS011;40423;53.176;6.002;2022-10-18T12:10:03;10.15;;;2.42;;
54517;SDS011;40423;53.176;6.002;2022-10-18T12:12:36;11.70;;;2.03;;
54517;SDS011;40423;53.176;6.002;2022-10-18T12:15:13;12.95;;;2.50;;
54517;SDS011;40423;53.176;6.002;2022-10-18T12:17:46;11.85;;;2.58;;
54517;SDS011;40423;53.176;6.002;2022-10-18T12:20:18;10.93;;;2.20;;
54517;SDS011;40423;53.176;6.002;2022-10-18T12:23:13;9.73;;;1.83;;
54517;SDS011;40423;53.176;6.002;2022-10-18T12:26:03;10.60;;;2.08;;
54517;SDS011;40423;53.176;6.002;2022-10-18T12:39:21;8.98;;;2.00;;
54517;SDS011;40423;53.176;6.002;2022-10-18T12:41:52;12.23;;;2.20;;
54517;SDS011;40423;53.176;6.002;2022-10-18T12:44:20;11.75;;;2.13;;
54517;SDS011;40423;53.176;6.002;2022-10-18T12:46:51;9.85;;;2.03;;
54517;SDS011;40423;53.176;6.002;2022-10-18T12:49:29;12.95;;;2.10;;
54517;SDS011;40423;53.176;6.002;2022-10-18T12:52:02;8.60;;;2.35;;
54517;SDS011;40423;53.176;6.002;2022-10-18T12:55:03;11.82;;;2.00;;
54517;SDS011;40423;53.176;6.002;2022-10-18T13:00:59;11.98;;;3.15;;
54517;SDS011;40423;53.176;6.002;2022-10-18T13:19:39;13.48;;;2.65;;
54517;SDS011;40423;53.176;6.002;2022-10-18T14:11:35;13.18;;;2.38;;
54517;SDS011;40423;53.176;6.002;2022-10-18T14:14:27;16.00;;;2.33;;
54517;SDS011;40423;53.176;6.002;2022-10-18T14:17:00;11.23;;;1.95;;
54517;SDS011;40423;53.176;6.002;2022-10-18T14:19:59;10.95;;;1.95;;
54517;SDS011;40423;53.176;6.002;2022-10-18T14:22:37;10.05;;;1.90;;
54517;SDS011;40423;53.176;6.002;2022-10-18T14:25:24;6.85;;;1.70;;
54517;SDS011;40423;53.176;6.002;2022-10-18T14:30:37;12.30;;;2.15;;
54517;SDS011;40423;53.176;6.002;2022-10-18T14:33:33;12.70;;;2.25;;
54517;SDS011;40423;53.176;6.002;2022-10-18T14:38:33;11.93;;;2.15;;
54517;SDS011;40423;53.176;6.002;2022-10-18T14:41:14;7.93;;;1.55;;
54517;SDS011;40423;53.176;6.002;2022-10-18T14:43:44;9.18;;;1.58;;
54517;SDS011;40423;53.176;6.002;2022-10-18T14:46:22;7.82;;;1.95;;
54517;SDS011;40423;53.176;6.002;2022-10-18T14:49:00;8.45;;;1.77;;
54517;SDS011;40423;53.176;6.002;2022-10-18T14:51:30;9.38;;;2.13;;
54517;SDS011;40423;53.176;6.002;2022-10-18T14:53:59;10.65;;;2.25;;
54517;SDS011;40423;53.176;6.002;2022-10-18T14:56:29;11.15;;;1.98;;
54517;SDS011;40423;53.176;6.002;2022-10-18T14:58:58;12.02;;;2.55;;
54517;SDS011;40423;53.176;6.002;2022-10-18T15:01:31;8.32;;;1.73;;
54517;SDS011;40423;53.176;6.002;2022-10-18T15:03:58;8.32;;;2.08;;
54517;SDS011;40423;53.176;6.002;2022-10-18T15:06:47;11.00;;;1.90;;
54517;SDS011;40423;53.176;6.002;2022-10-18T15:09:13;9.70;;;1.98;;
54517;SDS011;40423;53.176;6.002;2022-10-18T15:11:44;12.93;;;1.98;;
54517;SDS011;40423;53.176;6.002;2022-10-18T15:14:14;11.52;;;2.25;;
54517;SDS011;40423;53.176;6.002;2022-10-18T15:16:42;7.75;;;1.90;;
54517;SDS011;40423;53.176;6.002;2022-10-18T15:21:47;9.27;;;1.77;;
54517;SDS011;40423;53.176;6.002;2022-10-18T15:24:37;7.70;;;1.40;;
54517;SDS011;40423;53.176;6.002;2022-10-18T15:27:21;8.85;;;1.95;;
54517;SDS011;40423;53.176;6.002;2022-10-18T15:29:53;12.18;;;1.63;;
54517;SDS011;40423;53.176;6.002;2022-10-18T15:32:23;9.07;;;1.67;;
54517;SDS011;40423;53.176;6.002;2022-10-18T15:34:51;8.05;;;1.90;;
54517;SDS011;40423;53.176;6.002;2022-10-18T15:37:31;10.82;;;2.10;;
54517;SDS011;40423;53.176;6.002;2022-10-18T15:42:50;9.73;;;1.30;;
54517;SDS011;40423;53.176;6.002;2022-10-18T16:03:31;7.10;;;1.30;;
54517;SDS011;40423;53.176;6.002;2022-10-18T16:06:04;10.18;;;1.85;;
54517;SDS011;40423;53.176;6.002;2022-10-18T16:08:31;6.47;;;1.50;;
54517;SDS011;40423;53.176;6.002;2022-10-18T16:11:04;6.13;;;1.80;;
54517;SDS011;40423;53.176;6.002;2022-10-18T16:13:42;4.43;;;1.38;;
54517;SDS011;40423;53.176;6.002;2022-10-18T16:16:10;7.90;;;1.52;;
54517;SDS011;40423;53.176;6.002;2022-10-18T16:18:41;6.38;;;1.33;;
54517;SDS011;40423;53.176;6.002;2022-10-18T16:21:18;5.18;;;1.40;;
54517;SDS011;40423;53.176;6.002;2022-10-18T16:24:02;6.25;;;1.50;;
54517;SDS011;40423;53.176;6.002;2022-10-18T16:26:29;7.15;;;1.50;;
54517;SDS011;40423;53.176;6.002;2022-10-18T16:28:55;4.63;;;1.50;;
54517;SDS011;40423;53.176;6.002;2022-10-18T16:31:23;9.30;;;1.98;;
54517;SDS011;40423;53.176;6.002;2022-10-18T16:33:51;4.93;;;1.40;;
54517;SDS011;40423;53.176;6.002;2022-10-18T16:36:18;5.13;;;1.42;;
54517;SDS011;40423;53.176;6.002;2022-10-18T16:38:46;8.38;;;1.92;;
54517;SDS011;40423;53.176;6.002;2022-10-18T16:41:12;8.65;;;1.73;;
54517;SDS011;40423;53.176;6.002;2022-10-18T16:43:40;7.78;;;1.35;;
54517;SDS011;40423;53.176;6.002;2022-10-18T16:46:06;7.20;;;1.65;;
54517;SDS011;40423;53.176;6.002;2022-10-18T16:48:38;6.30;;;2.30;;
54517;SDS011;40423;53.176;6.002;2022-10-18T16:51:04;9.70;;;3.17;;
54517;SDS011;40423;53.176;6.002;2022-10-18T16:53:30;8.45;;;2.38;;
54517;SDS011;40423;53.176;6.002;2022-10-18T16:55:56;11.65;;;2.85;;
54517;SDS011;40423;53.176;6.002;2022-10-18T16:58:24;7.45;;;2.10;;
54517;SDS011;40423;53.176;6.002;2022-10-18T17:00:51;9.45;;;2.50;;
54517;SDS011;40423;53.176;6.002;2022-10-18T17:03:17;10.02;;;2.40;;
54517;SDS011;40423;53.176;6.002;2022-10-18T17:05:43;7.07;;;1.50;;
54517;SDS011;40423;53.176;6.002;2022-10-18T17:08:12;7.80;;;2.20;;
54517;SDS011;40423;53.176;6.002;2022-10-18T17:10:47;5.18;;;1.40;;
54517;SDS011;40423;53.176;6.002;2022-10-18T17:13:14;8.25;;;1.40;;
54517;SDS011;40423;53.176;6.002;2022-10-18T17:15:40;5.32;;;1.55;;
54517;SDS011;40423;53.176;6.002;2022-10-18T17:18:13;9.05;;;1.77;;
54517;SDS011;40423;53.176;6.002;2022-10-18T17:20:44;7.45;;;2.65;;
54517;SDS011;40423;53.176;6.002;2022-10-18T17:23:10;13.45;;;4.68;;
54517;SDS011;40423;53.176;6.002;2022-10-18T17:25:36;12.85;;;4.38;;
54517;SDS011;40423;53.176;6.002;2022-10-18T17:28:04;8.85;;;2.10;;
54517;SDS011;40423;53.176;6.002;2022-10-18T17:30:31;8.50;;;1.70;;
54517;SDS011;40423;53.176;6.002;2022-10-18T17:32:58;5.18;;;1.77;;
54517;SDS011;40423;53.176;6.002;2022-10-18T17:35:24;7.10;;;1.52;;
54517;SDS011;40423;53.176;6.002;2022-10-18T17:37:50;8.18;;;1.60;;
54517;SDS011;40423;53.176;6.002;2022-10-18T17:40:17;7.35;;;1.88;;
54517;SDS011;40423;53.176;6.002;2022-10-18T17:42:43;9.45;;;1.55;;
54517;SDS011;40423;53.176;6.002;2022-10-18T17:45:09;6.95;;;1.50;;
54517;SDS011;40423;53.176;6.002;2022-10-18T17:47:36;7.20;;;1.85;;
54517;SDS011;40423;53.176;6.002;2022-10-18T17:50:02;3.75;;;1.20;;
54517;SDS011;40423;53.176;6.002;2022-10-18T17:52:28;7.82;;;1.23;;
54517;SDS011;40423;53.176;6.002;2022-10-18T17:54:53;7.57;;;1.30;;
54517;SDS011;40423;53.176;6.002;2022-10-18T17:57:19;5.55;;;1.88;;
54517;SDS011;40423;53.176;6.002;2022-10-18T17:59:46;6.43;;;1.55;;
54517;SDS011;40423;53.176;6.002;2022-10-18T18:02:12;4.88;;;1.15;;
54517;SDS011;40423;53.176;6.002;2022-10-18T18:04:38;4.32;;;1.13;;
54517;SDS011;40423;53.176;6.002;2022-10-18T18:07:03;7.22;;;1.33;;
54517;SDS011;40423;53.176;6.002;2022-10-18T18:09:29;3.17;;;1.27;;
54517;SDS011;40423;53.176;6.002;2022-10-18T18:11:55;6.13;;;1.33;;
54517;SDS011;40423;53.176;6.002;2022-10-18T18:14:22;4.25;;;1.58;;
54517;SDS011;40423;53.176;6.002;2022-10-18T18:16:48;6.13;;;1.05;;
54517;SDS011;40423;53.176;6.002;2022-10-18T18:19:14;5.25;;;1.10;;
54517;SDS011;40423;53.176;6.002;2022-10-18T18:21:43;4.20;;;1.05;;
54517;SDS011;40423;53.176;6.002;2022-10-18T18:24:09;9.02;;;2.72;;
54517;SDS011;40423;53.176;6.002;2022-10-18T18:26:36;5.38;;;1.65;;